Brunswick, New York
Current Conditions -  °F | °C
As of 12:51 AM on Friday 28 Nov 2014 (Local Time) from KALB Reporting Station
Light Snow Light Snow  
Wind Chill: 27°   Ceiling: 7000
Heat Index: 27°   Visibility: 9mi
Dew Point: 25°   Wind: 0mph
Humidity: 92%   Direction: NA
Pressure: 30.04"   Gusts: NA
Location:  42.7478°N, 73.6049°W
Report Text: KALB 280551Z 00000KT 9SM -SN VCFG FEW006 FEW018 OVC070 M03/M04 A3004 RMK AO2 SLP175 VCFG E P0000 60003 T10281039 11011 21033 58006
Loading
Personal Weather Stations






























Interactive Weather Map New forecast layout! Learn more

10-Day Weather Forecast

Advertisements
Track Severe Weather on mobile